Time;durP1;ratioP1;P1;durP2;ratioP2;P2;SDS_P1;SDS_P2;PMS_P1;PMS_P2;Temp;Humidity;BMP_temperature;BMP_pressure;BME280_temperature;BME280_humidity;BME280_pressure;Samples;Min_cycle;Max_cycle;Signal;HPM_P1;HPM_P2
2022/08/24 00:01:11;;;;;;;5.00;2.13;;;25.30;63.50;;;;;;4978996;28;20019;-67
2022/08/24 00:03:38;;;;;;;4.88;2.15;;;25.20;63.50;;;;;;4987799;28;20022;-68
2022/08/24 00:06:07;;;;;;;4.80;2.55;;;25.20;63.20;;;;;;4984889;28;20030;-68
2022/08/24 00:08:32;;;;;;;5.38;2.38;;;25.20;63.10;;;;;;4989093;28;20157;-68
2022/08/24 00:10:58;;;;;;;3.72;2.40;;;25.20;62.90;;;;;;4973480;28;20138;-68
2022/08/24 00:13:25;;;;;;;5.50;2.25;;;25.20;62.90;;;;;;4970660;28;20041;-69
2022/08/24 00:15:51;;;;;;;5.07;2.47;;;25.20;63.00;;;;;;4976850;28;20037;-69
2022/08/24 00:18:17;;;;;;;7.15;2.75;;;25.20;63.00;;;;;;4971850;28;20576;-69
2022/08/24 00:20:44;;;;;;;4.95;2.35;;;25.10;62.80;;;;;;4986025;28;20030;-68
2022/08/24 00:23:09;;;;;;;5.38;2.20;;;25.10;62.70;;;;;;4970480;28;20532;-69
2022/08/24 00:25:35;;;;;;;6.70;2.33;;;25.10;62.40;;;;;;4975519;28;20027;-69
2022/08/24 00:28:02;;;;;;;4.88;2.40;;;25.10;62.40;;;;;;4985440;28;20029;-69
2022/08/24 00:30:28;;;;;;;4.70;2.25;;;25.00;62.30;;;;;;4980977;28;20441;-69
2022/08/24 00:32:54;;;;;;;4.97;2.35;;;25.00;62.60;;;;;;4970565;28;20035;-69
2022/08/24 00:35:20;;;;;;;4.47;2.25;;;25.00;63.00;;;;;;4970460;28;20085;-68
2022/08/24 00:37:48;;;;;;;4.45;2.45;;;25.00;63.20;;;;;;4985583;28;20030;-69
2022/08/24 00:40:19;;;;;;;5.10;2.85;;;25.00;63.20;;;;;;4985660;28;20109;-68
2022/08/24 00:42:44;;;;;;;4.28;2.63;;;25.00;63.20;;;;;;4985902;28;20030;-69
2022/08/24 00:45:13;;;;;;;3.75;1.98;;;25.10;63.20;;;;;;4970558;28;20074;-69
2022/08/24 00:48:03;;;;;;;4.05;2.35;;;25.10;63.40;;;;;;4977994;28;20097;-69
2022/08/24 00:51:03;;;;;;;4.63;2.58;;;25.10;63.40;;;;;;4983498;28;20138;-69
2022/08/24 00:53:36;;;;;;;4.25;2.10;;;25.00;63.40;;;;;;4983927;28;20358;-68
2022/08/24 00:56:13;;;;;;;4.15;1.88;;;25.00;63.20;;;;;;4983732;28;20026;-68
2022/08/24 00:58:54;;;;;;;4.15;2.08;;;25.00;63.30;;;;;;4952140;28;20379;-68
2022/08/24 01:01:21;;;;;;;2.85;2.03;;;24.90;63.20;;;;;;4977721;28;20035;-68
2022/08/24 01:03:47;;;;;;;4.65;2.30;;;24.90;63.10;;;;;;4968937;28;20035;-68
2022/08/24 01:06:13;;;;;;;5.30;2.40;;;24.90;63.10;;;;;;4986075;28;20069;-68
2022/08/24 01:08:39;;;;;;;5.45;3.30;;;24.80;63.20;;;;;;4984705;28;20454;-69
2022/08/24 01:11:11;;;;;;;5.65;3.00;;;24.80;63.30;;;;;;4992122;28;20085;-69
2022/08/24 01:13:37;;;;;;;5.18;2.70;;;24.80;63.50;;;;;;4982765;28;20038;-68
2022/08/24 01:16:05;;;;;;;4.18;2.72;;;24.80;63.70;;;;;;4991746;28;20022;-69
2022/08/24 01:18:49;;;;;;;4.95;2.03;;;24.80;64.00;;;;;;4988812;28;20034;-69
2022/08/24 01:21:22;;;;;;;4.10;2.22;;;24.80;64.00;;;;;;4991954;28;20036;-68
2022/08/24 01:23:53;;;;;;;5.07;2.42;;;24.80;64.10;;;;;;4984443;28;20031;-69
2022/08/24 01:26:24;;;;;;;6.03;2.40;;;24.80;64.20;;;;;;4975527;28;20568;-69
2022/08/24 01:28:55;;;;;;;4.32;2.42;;;24.80;64.50;;;;;;4974985;28;20081;-69
2022/08/24 01:31:23;;;;;;;4.25;2.55;;;24.80;64.70;;;;;;4977195;28;20033;-69
2022/08/24 01:33:51;;;;;;;6.18;3.10;;;24.80;64.80;;;;;;4981627;28;20062;-69
2022/08/24 01:36:36;;;;;;;4.53;2.55;;;24.80;65.00;;;;;;4961743;28;20031;-69
2022/08/24 01:39:11;;;;;;;5.13;2.65;;;24.80;65.30;;;;;;4984816;28;20057;-69
2022/08/24 01:41:37;;;;;;;4.18;2.90;;;24.80;65.50;;;;;;4980170;28;20758;-66
2022/08/24 01:44:03;;;;;;;6.63;3.22;;;24.80;65.60;;;;;;4983895;28;20023;-67
2022/08/24 01:46:29;;;;;;;4.95;2.65;;;24.80;65.70;;;;;;4982968;28;20050;-68
2022/08/24 01:48:56;;;;;;;6.32;2.78;;;24.80;65.90;;;;;;4973451;28;20037;-68
2022/08/24 01:51:23;;;;;;;7.05;3.45;;;24.80;65.90;;;;;;4992759;28;20068;-68
2022/08/24 01:53:48;;;;;;;5.05;3.13;;;24.80;66.10;;;;;;4981080;28;20030;-68
2022/08/24 01:56:14;;;;;;;6.60;3.40;;;24.70;66.80;;;;;;4973203;28;20133;-68
2022/08/24 01:58:45;;;;;;;6.22;3.50;;;24.70;66.40;;;;;;4960632;28;20485;-68
2022/08/24 02:01:12;;;;;;;5.57;3.15;;;24.70;66.50;;;;;;4989926;28;20030;-68
2022/08/24 02:03:38;;;;;;;5.22;3.08;;;24.70;66.50;;;;;;4986963;28;20038;-68
2022/08/24 02:06:04;;;;;;;5.18;3.03;;;24.70;66.70;;;;;;4977376;28;20043;-68
2022/08/24 02:08:30;;;;;;;6.45;3.45;;;24.70;66.70;;;;;;4972690;28;20825;-69
2022/08/24 02:10:56;;;;;;;5.55;3.40;;;24.70;66.80;;;;;;4979767;28;20022;-68
2022/08/24 02:13:22;;;;;;;6.13;3.70;;;24.60;66.90;;;;;;4983111;28;20493;-68
2022/08/24 02:15:47;;;;;;;6.40;3.42;;;24.60;66.90;;;;;;4979831;28;20062;-68
2022/08/24 02:18:13;;;;;;;5.80;3.60;;;24.60;67.00;;;;;;4972585;28;20026;-68
2022/08/24 02:20:39;;;;;;;7.72;4.40;;;24.70;67.00;;;;;;4982521;28;20023;-68
2022/08/24 02:23:07;;;;;;;6.10;3.53;;;24.60;67.00;;;;;;4972330;28;20043;-67
2022/08/24 02:25:33;;;;;;;5.28;3.47;;;24.60;67.30;;;;;;4979939;28;20034;-68
2022/08/24 02:28:00;;;;;;;5.35;3.28;;;24.60;67.50;;;;;;4988661;28;20069;-67
2022/08/24 02:30:27;;;;;;;6.22;3.53;;;24.70;67.70;;;;;;4977419;28;20061;-67
2022/08/24 02:32:52;;;;;;;5.75;3.47;;;24.70;67.80;;;;;;4972538;28;20049;-68
2022/08/24 02:35:18;;;;;;;6.10;3.22;;;24.70;67.80;;;;;;4981088;28;20545;-67
2022/08/24 02:37:44;;;;;;;5.78;3.70;;;24.70;67.80;;;;;;4991026;28;20503;-67
2022/08/24 02:40:11;;;;;;;5.78;3.35;;;24.60;67.80;;;;;;4985520;28;20027;-68
2022/08/24 02:42:37;;;;;;;5.55;3.40;;;24.60;67.80;;;;;;4986051;28;20035;-68
2022/08/24 02:45:04;;;;;;;5.22;3.20;;;24.60;67.80;;;;;;4986777;28;20389;-68
2022/08/24 02:47:29;;;;;;;5.95;3.53;;;24.60;68.00;;;;;;4987216;28;20054;-68
2022/08/24 02:49:56;;;;;;;5.90;4.03;;;24.50;67.80;;;;;;4985824;28;20019;-67
2022/08/24 02:52:22;;;;;;;6.20;3.78;;;24.50;67.80;;;;;;4984428;28;20018;-68
2022/08/24 02:54:47;;;;;;;6.38;3.55;;;24.50;67.80;;;;;;4977844;28;20042;-68
2022/08/24 02:57:13;;;;;;;4.88;2.85;;;24.50;67.80;;;;;;4984425;28;20026;-68
2022/08/24 02:59:39;;;;;;;7.28;3.58;;;24.50;67.90;;;;;;4990114;28;20022;-68
2022/08/24 03:02:05;;;;;;;6.10;3.53;;;24.40;67.80;;;;;;4978929;28;20050;-68
2022/08/24 03:04:31;;;;;;;7.28;4.47;;;24.40;67.80;;;;;;4990096;28;20030;-68
2022/08/24 03:06:58;;;;;;;8.18;3.92;;;24.40;67.90;;;;;;4980793;28;20038;-67
2022/08/24 03:09:24;;;;;;;7.20;3.97;;;24.40;67.90;;;;;;4990345;28;20022;-68
2022/08/24 03:11:49;;;;;;;6.82;4.65;;;24.40;68.00;;;;;;4981009;28;20031;-67
2022/08/24 03:14:16;;;;;;;7.15;4.30;;;24.30;68.10;;;;;;4969879;28;20038;-69
2022/08/24 03:16:41;;;;;;;7.05;4.38;;;24.30;68.20;;;;;;4981686;28;20089;-69
2022/08/24 03:19:07;;;;;;;8.90;4.90;;;24.30;68.40;;;;;;4969002;28;20022;-69
2022/08/24 03:21:32;;;;;;;5.97;4.43;;;24.30;68.50;;;;;;4973971;28;20027;-69
2022/08/24 03:23:58;;;;;;;6.32;3.53;;;24.20;68.50;;;;;;4986243;28;20030;-69
2022/08/24 03:26:24;;;;;;;6.50;4.00;;;24.30;68.50;;;;;;4985110;28;20065;-69
2022/08/24 03:28:50;;;;;;;6.90;4.47;;;24.30;68.40;;;;;;4989017;28;20030;-68
2022/08/24 03:31:16;;;;;;;7.25;4.90;;;24.30;68.40;;;;;;4967978;28;20146;-68
2022/08/24 03:33:43;;;;;;;8.55;5.25;;;24.30;68.40;;;;;;4983412;28;20073;-67
2022/08/24 03:36:09;;;;;;;7.90;5.40;;;24.30;68.50;;;;;;4985963;28;20034;-67
2022/08/24 03:38:35;;;;;;;7.00;4.50;;;24.20;68.50;;;;;;4970762;28;20019;-68
2022/08/24 03:41:01;;;;;;;6.93;4.60;;;24.20;68.50;;;;;;4974285;28;20038;-68
2022/08/24 03:43:45;;;;;;;6.63;4.85;;;24.20;68.60;;;;;;4979741;28;20033;-67
2022/08/24 03:46:13;;;;;;;7.53;5.00;;;24.30;68.60;;;;;;4985053;28;20104;-68
2022/08/24 03:48:40;;;;;;;8.20;4.90;;;24.30;68.70;;;;;;4978813;28;20536;-69
2022/08/24 03:51:09;;;;;;;8.38;5.97;;;24.30;68.80;;;;;;4988004;28;20026;-67
2022/08/24 03:53:34;;;;;;;8.13;5.87;;;24.30;68.90;;;;;;4978843;28;20026;-67
2022/08/24 03:56:00;;;;;;;10.52;6.68;;;24.30;69.00;;;;;;4988573;28;20053;-68
2022/08/24 03:58:27;;;;;;;9.02;6.32;;;24.30;69.10;;;;;;4968636;28;20061;-67
2022/08/24 04:00:53;;;;;;;8.63;5.97;;;24.30;69.20;;;;;;4970836;28;20023;-68
2022/08/24 04:03:19;;;;;;;9.57;5.75;;;24.30;69.20;;;;;;4974723;28;20066;-68
2022/08/24 04:05:44;;;;;;;9.30;5.47;;;24.30;69.30;;;;;;4971740;28;20031;-68
2022/08/24 04:08:10;;;;;;;6.55;5.57;;;24.30;69.50;;;;;;4975898;28;20490;-68
2022/08/24 04:10:37;;;;;;;8.90;6.38;;;24.30;69.50;;;;;;4970846;28;20022;-68
2022/08/24 04:13:03;;;;;;;9.10;6.35;;;24.30;69.50;;;;;;4981590;28;20490;-68
2022/08/24 04:15:30;;;;;;;8.48;5.80;;;24.30;69.60;;;;;;4975211;28;20161;-68
2022/08/24 04:17:56;;;;;;;7.78;5.53;;;24.30;69.60;;;;;;4976043;28;20015;-68
2022/08/24 04:20:22;;;;;;;6.85;5.10;;;24.20;69.50;;;;;;4974118;28;20023;-68
2022/08/24 04:22:50;;;;;;;6.40;4.85;;;24.10;69.80;;;;;;4974242;28;20147;-68
2022/08/24 04:25:16;;;;;;;7.88;5.25;;;24.10;70.10;;;;;;4989818;28;20061;-68
2022/08/24 04:27:41;;;;;;;7.18;5.97;;;24.00;69.90;;;;;;4972456;28;20042;-67
2022/08/24 04:30:08;;;;;;;7.18;5.68;;;24.00;70.00;;;;;;4985268;28;20026;-67
2022/08/24 04:32:34;;;;;;;8.45;5.95;;;24.00;70.10;;;;;;4986075;28;20035;-68
2022/08/24 04:35:00;;;;;;;9.13;6.00;;;24.00;70.10;;;;;;4980535;28;20078;-68
2022/08/24 04:37:25;;;;;;;7.80;6.07;;;24.00;70.00;;;;;;4974056;28;20066;-68
2022/08/24 04:39:51;;;;;;;8.85;6.53;;;24.10;70.10;;;;;;4981121;28;20027;-68
2022/08/24 04:42:18;;;;;;;9.15;6.35;;;24.10;70.20;;;;;;4973297;28;20018;-68
2022/08/24 04:44:44;;;;;;;8.05;6.13;;;24.10;70.30;;;;;;4986027;28;20053;-68
2022/08/24 04:47:10;;;;;;;10.07;6.45;;;24.10;70.40;;;;;;4989093;28;20046;-69
2022/08/24 04:49:37;;;;;;;8.60;6.32;;;24.20;70.50;;;;;;4982314;28;20019;-68
2022/08/24 04:52:03;;;;;;;8.32;6.60;;;24.20;70.60;;;;;;4975764;28;20027;-67
2022/08/24 04:54:31;;;;;;;8.40;6.82;;;24.20;70.60;;;;;;4977395;28;20525;-67
2022/08/24 04:56:57;;;;;;;10.65;7.28;;;24.20;70.50;;;;;;4978655;28;20138;-68
2022/08/24 04:59:22;;;;;;;8.80;7.30;;;24.20;70.50;;;;;;4977653;28;20102;-68
2022/08/24 05:01:48;;;;;;;10.40;7.53;;;24.20;70.70;;;;;;4987268;28;20038;-68
2022/08/24 05:04:14;;;;;;;12.20;7.55;;;24.20;70.80;;;;;;4988259;28;20026;-68
2022/08/24 05:06:40;;;;;;;9.82;7.50;;;24.20;70.90;;;;;;4984407;28;20030;-68
2022/08/24 05:09:06;;;;;;;8.75;7.22;;;24.10;70.80;;;;;;4989154;28;20163;-68
2022/08/24 05:11:34;;;;;;;9.23;6.93;;;24.20;70.80;;;;;;4988028;28;20026;-68
2022/08/24 05:14:00;;;;;;;11.68;8.65;;;24.20;70.90;;;;;;4991864;28;20029;-68
2022/08/24 05:16:26;;;;;;;10.32;7.85;;;24.20;70.90;;;;;;4982035;28;20333;-68
2022/08/24 05:18:54;;;;;;;10.88;7.88;;;24.20;71.00;;;;;;4973986;28;20087;-68
2022/08/24 05:21:21;;;;;;;9.48;7.95;;;24.20;71.00;;;;;;4986310;28;20075;-68
2022/08/24 05:23:47;;;;;;;9.77;7.65;;;24.20;71.00;;;;;;4992739;28;20461;-68
2022/08/24 05:26:20;;;;;;;10.40;8.43;;;24.30;71.10;;;;;;4989727;28;20092;-68
2022/08/24 05:28:46;;;;;;;10.70;8.02;;;24.30;71.10;;;;;;4973884;28;20066;-68
2022/08/24 05:31:21;;;;;;;11.38;8.80;;;24.30;71.10;;;;;;4976187;28;20026;-68
2022/08/24 05:33:47;;;;;;;9.95;8.70;;;24.40;71.10;;;;;;4985295;28;20074;-69
2022/08/24 05:36:34;;;;;;;9.27;7.97;;;24.40;71.00;;;;;;4985465;28;20389;-69
2022/08/24 05:39:06;;;;;;;12.02;8.75;;;24.50;71.10;;;;;;4973920;28;20027;-68
2022/08/24 05:41:33;;;;;;;12.57;8.68;;;24.50;71.00;;;;;;4977321;28;20109;-67
2022/08/24 05:43:59;;;;;;;17.67;9.80;;;24.60;71.10;;;;;;4973529;28;20030;-67
2022/08/24 05:46:25;;;;;;;12.80;10.75;;;24.60;71.20;;;;;;4984104;28;20099;-68
2022/08/24 05:48:51;;;;;;;14.30;9.95;;;24.60;71.40;;;;;;4982636;28;20026;-68
2022/08/24 05:51:17;;;;;;;14.60;10.90;;;24.60;71.50;;;;;;4981454;28;20030;-68
2022/08/24 05:53:43;;;;;;;8.98;7.18;;;24.60;71.70;;;;;;4985113;28;20081;-68
2022/08/24 05:56:12;;;;;;;8.05;6.57;;;24.60;71.50;;;;;;4982404;28;20041;-67
2022/08/24 05:58:38;;;;;;;11.10;8.45;;;24.50;70.90;;;;;;4982166;28;20023;-68
2022/08/24 06:01:09;;;;;;;10.75;8.60;;;24.50;71.50;;;;;;4982492;28;20544;-68
2022/08/24 06:03:35;;;;;;;19.10;14.77;;;24.50;71.70;;;;;;4985039;28;20027;-68
2022/08/24 06:06:05;;;;;;;14.35;11.90;;;24.50;71.80;;;;;;4989511;28;20113;-67
2022/08/24 06:08:30;;;;;;;;;;;24.50;72.20;;;;;;4979873;28;20042;-67
2022/08/24 06:10:56;;;;;;;12.30;10.05;;;24.60;72.30;;;;;;4977356;28;19906;-68
2022/08/24 06:13:22;;;;;;;12.10;8.15;;;24.60;70.20;;;;;;4980351;28;20528;-67
2022/08/24 06:15:47;;;;;;;8.73;3.60;;;24.60;65.40;;;;;;4987677;28;20072;-67
2022/08/24 06:18:13;;;;;;;6.75;3.30;;;24.70;63.40;;;;;;4985076;28;20449;-67
2022/08/24 06:20:41;;;;;;;10.45;3.60;;;24.80;60.10;;;;;;4971675;28;20034;-68
2022/08/24 06:23:07;;;;;;;9.25;3.65;;;24.90;59.70;;;;;;4980345;28;20030;-68
2022/08/24 06:28:18;;;;;;;11.77;4.50;;;25.20;59.90;;;;;;4979719;28;20097;-69
2022/08/24 06:30:43;;;;;;;9.88;6.28;;;25.30;60.60;;;;;;4982541;28;20035;-68
2022/08/24 06:33:09;;;;;;;8.18;3.10;;;25.40;62.60;;;;;;4980327;28;20397;-68
2022/08/24 06:35:35;;;;;;;14.73;10.70;;;25.40;61.30;;;;;;4976039;28;20037;-67
2022/08/24 06:38:00;;;;;;;20.58;17.67;;;25.50;61.60;;;;;;4980756;28;20039;-67
2022/08/24 06:40:27;;;;;;;17.35;14.80;;;25.50;66.50;;;;;;4984391;28;20030;-69
2022/08/24 06:42:53;;;;;;;18.15;14.10;;;25.50;67.40;;;;;;4980553;28;20034;-67
2022/08/24 06:45:20;;;;;;;18.95;13.10;;;25.40;67.90;;;;;;4981304;28;20030;-67
2022/08/24 06:47:45;;;;;;;15.77;9.65;;;25.50;68.40;;;;;;4976703;28;20060;-68
2022/08/24 06:50:11;;;;;;;16.98;8.52;;;25.50;66.40;;;;;;4986558;28;20022;-68
2022/08/24 06:52:38;;;;;;;9.20;5.82;;;25.60;64.30;;;;;;4982250;28;20033;-73
2022/08/24 06:55:05;;;;;;;20.33;15.63;;;25.60;61.90;;;;;;4981491;28;20113;-73
2022/08/24 06:57:30;;;;;;;18.90;13.50;;;25.60;65.90;;;;;;4962828;28;20078;-74
2022/08/24 06:59:56;;;;;;;19.88;14.88;;;25.60;66.50;;;;;;4979779;28;20219;-71
2022/08/24 07:02:22;;;;;;;25.38;19.10;;;25.60;66.70;;;;;;4989602;28;20030;-71
2022/08/24 07:04:48;;;;;;;11.30;8.43;;;25.60;67.70;;;;;;4979051;28;20022;-73
2022/08/24 07:07:14;;;;;;;12.52;6.07;;;25.60;65.50;;;;;;4990783;28;20093;-73
2022/08/24 07:09:40;;;;;;;20.85;18.15;;;25.60;64.40;;;;;;4978201;28;20536;-73
2022/08/24 07:12:06;;;;;;;16.92;11.13;;;25.60;66.60;;;;;;4990617;28;20026;-72
2022/08/24 07:14:32;;;;;;;8.75;6.55;;;25.70;65.60;;;;;;4977987;28;20118;-73
2022/08/24 07:16:58;;;;;;;16.00;10.55;;;25.80;64.50;;;;;;4955868;28;20675;-71
2022/08/24 07:19:24;;;;;;;15.00;8.88;;;25.90;65.80;;;;;;4980683;28;20088;-71
2022/08/24 07:21:49;;;;;;;11.23;8.93;;;25.90;66.40;;;;;;4988290;28;20022;-70
2022/08/24 07:24:15;;;;;;;14.38;10.68;;;26.10;66.60;;;;;;4985189;28;20025;-70
2022/08/24 07:26:41;;;;;;;12.85;8.95;;;26.30;66.90;;;;;;4978247;28;20386;-70
2022/08/24 07:29:14;;;;;;;18.95;12.43;;;26.50;66.60;;;;;;4985527;28;20027;-70
2022/08/24 07:31:40;;;;;;;13.52;8.68;;;26.70;66.10;;;;;;4976981;28;20057;-68
2022/08/24 07:34:08;;;;;;;12.55;9.13;;;26.70;65.70;;;;;;4975158;28;20382;-69
2022/08/24 07:36:35;;;;;;;13.30;8.90;;;26.70;65.70;;;;;;4988146;28;20057;-69
2022/08/24 07:39:01;;;;;;;15.60;10.90;;;26.90;65.30;;;;;;4985968;28;20042;-69
2022/08/24 07:41:28;;;;;;;12.10;9.13;;;27.00;64.70;;;;;;4982235;28;20033;-69
2022/08/24 07:43:55;;;;;;;13.30;8.68;;;27.00;63.90;;;;;;4972470;28;20034;-70
2022/08/24 07:46:21;;;;;;;11.15;8.35;;;27.20;64.10;;;;;;4960895;28;20163;-70
2022/08/24 07:48:47;;;;;;;8.07;6.70;;;27.30;64.00;;;;;;4989445;28;20027;-70
2022/08/24 07:51:17;;;;;;;11.93;8.07;;;27.50;63.20;;;;;;4985612;28;20033;-70
2022/08/24 07:53:43;;;;;;;8.55;5.60;;;27.50;62.60;;;;;;4970600;28;20073;-69
2022/08/24 07:56:10;;;;;;;12.43;9.13;;;27.70;62.60;;;;;;4982679;28;20370;-70
2022/08/24 07:58:35;;;;;;;12.90;6.78;;;27.80;62.50;;;;;;4990043;28;20032;-70
2022/08/24 08:01:03;;;;;;;11.50;7.55;;;27.90;62.60;;;;;;4975370;28;20019;-70
2022/08/24 08:03:32;;;;;;;12.30;10.00;;;27.90;62.10;;;;;;4989982;28;20018;-70
2022/08/24 08:06:00;;;;;;;9.07;7.60;;;28.00;61.30;;;;;;4985175;28;20030;-70
2022/08/24 08:08:27;;;;;;;8.60;5.20;;;28.00;60.20;;;;;;4989502;28;20037;-69
2022/08/24 08:10:53;;;;;;;12.70;5.88;;;28.10;60.40;;;;;;4987722;28;20022;-70
2022/08/24 08:13:19;;;;;;;6.47;3.80;;;28.30;59.10;;;;;;4989395;28;20049;-69
2022/08/24 08:15:45;;;;;;;10.27;3.95;;;28.40;59.00;;;;;;4985278;28;20745;-70
2022/08/24 08:18:11;;;;;;;5.55;3.72;;;28.60;58.50;;;;;;4982639;28;20026;-69
2022/08/24 08:20:39;;;;;;;8.55;4.25;;;28.80;58.20;;;;;;4986341;28;20032;-71
2022/08/24 08:25:56;;;;;;;11.10;3.97;;;29.00;57.30;;;;;;4983739;28;20452;-70
2022/08/24 08:28:22;;;;;;;6.55;3.45;;;29.20;55.80;;;;;;4980867;28;20030;-70
2022/08/24 08:30:48;;;;;;;8.88;4.05;;;29.20;55.00;;;;;;4984084;28;20019;-71
2022/08/24 08:33:14;;;;;;;6.13;4.47;;;29.30;54.80;;;;;;4963102;28;20022;-70
2022/08/24 08:35:40;;;;;;;8.75;3.55;;;29.30;54.00;;;;;;4973716;28;20078;-69
2022/08/24 08:38:07;;;;;;;7.53;3.00;;;29.40;54.40;;;;;;4987148;28;20041;-69
2022/08/24 08:41:20;;;;;;;7.68;4.38;;;29.60;54.80;;;;;;4988825;28;20144;-69
2022/08/24 08:44:19;;;;;;;9.13;3.00;;;29.60;53.80;;;;;;4969926;28;20023;-69
2022/08/24 08:47:20;;;;;;;6.30;2.63;;;29.50;54.40;;;;;;4974090;28;20061;-69
2022/08/24 08:50:06;;;;;;;6.07;3.28;;;29.70;54.00;;;;;;4927874;28;20054;-69
2022/08/24 08:53:13;;;;;;;9.93;4.13;;;29.80;53.50;;;;;;4962410;28;20022;-69
2022/08/24 08:55:47;;;;;;;6.22;2.70;;;29.80;53.00;;;;;;4989077;28;20026;-69
2022/08/24 08:58:44;;;;;;;6.35;3.40;;;29.90;53.30;;;;;;4983262;28;20030;-69
2022/08/24 09:01:35;;;;;;;7.13;3.33;;;29.90;53.30;;;;;;4970068;28;20055;-69
2022/08/24 09:04:11;;;;;;;2.88;1.95;;;30.10;54.00;;;;;;4979872;28;20517;-69
2022/08/24 09:07:17;;;;;;;6.00;2.08;;;30.30;53.10;;;;;;4971158;28;20057;-69
2022/08/24 09:09:54;;;;;;;3.38;1.58;;;30.30;52.70;;;;;;4983420;28;20049;-69
2022/08/24 09:12:42;;;;;;;5.60;2.13;;;30.50;52.40;;;;;;4986004;28;20057;-70
2022/08/24 09:15:19;;;;;;;4.70;1.48;;;30.60;51.60;;;;;;4982315;28;20029;-69
2022/08/24 09:18:32;;;;;;;4.30;1.50;;;30.70;51.60;;;;;;4983649;28;20039;-70
2022/08/24 09:21:10;;;;;;;6.05;2.38;;;30.70;52.00;;;;;;4966996;28;20042;-69
2022/08/24 09:24:06;;;;;;;3.28;1.67;;;30.80;51.70;;;;;;4979258;28;20039;-68
2022/08/24 09:26:56;;;;;;;5.07;1.83;;;31.00;51.50;;;;;;4972646;28;20042;-69
2022/08/24 09:29:46;;;;;;;3.95;1.58;;;31.00;51.80;;;;;;4979769;28;20026;-68
2022/08/24 09:32:20;;;;;;;4.05;1.67;;;31.10;52.80;;;;;;4992278;28;20034;-67
2022/08/24 09:34:58;;;;;;;4.82;2.67;;;31.20;51.70;;;;;;4987539;28;20061;-68
2022/08/24 09:37:59;;;;;;;6.03;2.40;;;31.10;49.00;;;;;;4972504;28;20037;-69
2022/08/24 09:40:36;;;;;;;5.47;2.55;;;31.20;53.80;;;;;;4987435;28;20034;-72
2022/08/24 09:43:11;;;;;;;4.85;1.50;;;31.40;51.50;;;;;;4988095;28;20089;-73
2022/08/24 09:45:52;;;;;;;4.50;1.60;;;31.60;51.50;;;;;;4983317;28;20069;-72
2022/08/24 09:48:38;;;;;;;3.47;1.95;;;31.90;52.90;;;;;;4989994;28;20530;-73
2022/08/24 09:51:22;;;;;;;4.93;1.83;;;32.00;48.30;;;;;;4983202;28;20106;-73
2022/08/24 09:54:06;;;;;;;2.67;1.50;;;32.10;48.50;;;;;;4988197;28;20022;-73
2022/08/24 09:56:50;;;;;;;2.03;1.33;;;32.30;50.00;;;;;;4986106;28;20026;-71
2022/08/24 09:59:46;;;;;;;4.30;1.52;;;32.60;49.30;;;;;;4985857;28;20890;-72
2022/08/24 10:02:23;;;;;;;4.03;1.58;;;32.90;47.70;;;;;;4972815;28;20027;-72
2022/08/24 10:05:04;;;;;;;2.42;1.35;;;33.10;45.70;;;;;;4980673;28;20084;-71
2022/08/24 10:07:47;;;;;;;1.88;0.95;;;33.20;45.40;;;;;;4973591;28;20035;-72
2022/08/24 10:10:26;;;;;;;1.70;1.00;;;33.30;47.00;;;;;;4976864;28;20023;-72
2022/08/24 10:13:00;;;;;;;4.72;1.50;;;33.40;46.50;;;;;;4991742;28;20026;-72
2022/08/24 10:15:47;;;;;;;3.22;1.45;;;33.50;44.30;;;;;;4977964;28;20055;-73
2022/08/24 10:19:04;;;;;;;3.72;1.45;;;33.50;44.70;;;;;;4972157;28;20027;-73
2022/08/24 10:21:37;;;;;;;6.00;1.25;;;33.70;45.90;;;;;;4946596;28;20052;-72
2022/08/24 10:24:14;;;;;;;3.28;1.00;;;33.70;44.10;;;;;;4955147;28;20081;-72
2022/08/24 10:27:12;;;;;;;2.60;0.80;;;33.70;41.80;;;;;;4984882;28;20049;-72
2022/08/24 10:30:10;;;;;;;1.42;0.70;;;33.70;44.40;;;;;;4973263;28;20113;-72
2022/08/24 10:32:42;;;;;;;1.85;0.50;;;33.70;42.90;;;;;;4990837;28;20060;-73
2022/08/24 10:35:28;;;;;;;1.42;0.43;;;33.70;43.40;;;;;;4985779;28;20050;-73
2022/08/24 10:41:24;;;;;;;1.80;0.80;;;34.00;45.60;;;;;;4986930;28;20037;-73
2022/08/24 10:44:15;;;;;;;1.33;0.75;;;34.20;47.10;;;;;;4983628;28;20085;-73
2022/08/24 10:47:03;;;;;;;2.47;1.15;;;34.20;42.70;;;;;;4976237;28;20042;-73
2022/08/24 10:49:35;;;;;;;2.35;0.88;;;34.50;48.20;;;;;;4978211;28;20424;-72
2022/08/24 10:52:00;;;;;;;2.55;1.10;;;34.50;42.20;;;;;;4976075;28;20069;-71
2022/08/24 10:54:26;;;;;;;2.83;1.20;;;34.50;45.70;;;;;;4979371;28;20075;-72
2022/08/24 10:57:01;;;;;;;1.98;0.80;;;34.60;41.90;;;;;;4974476;28;20601;-73
2022/08/24 11:00:05;;;;;;;4.22;1.10;;;34.80;41.20;;;;;;4974403;28;20022;-73
2022/08/24 11:02:36;;;;;;;2.33;0.70;;;35.00;41.70;;;;;;4958782;28;20122;-73
2022/08/24 11:05:08;;;;;;;2.05;0.90;;;34.80;49.20;;;;;;4974777;28;20448;-73
2022/08/24 11:07:34;;;;;;;3.33;1.13;;;34.70;49.00;;;;;;4977566;28;20035;-73
2022/08/24 11:10:06;;;;;;;2.45;1.30;;;34.50;44.90;;;;;;4973372;28;20027;-72
2022/08/24 11:12:41;;;;;;;1.75;0.95;;;34.50;45.20;;;;;;4975645;28;20101;-73
2022/08/24 11:15:10;;;;;;;1.58;1.10;;;34.60;50.20;;;;;;4974044;28;20033;-72
2022/08/24 11:17:36;;;;;;;3.00;1.00;;;34.70;47.70;;;;;;4977010;28;20030;-72
2022/08/24 11:20:02;;;;;;;2.75;1.17;;;34.80;49.90;;;;;;4975755;28;20478;-72
2022/08/24 11:22:27;;;;;;;3.40;1.30;;;34.80;43.30;;;;;;4977806;28;20027;-72
2022/08/24 11:24:58;;;;;;;2.53;1.20;;;34.80;41.30;;;;;;4975116;28;20089;-71
2022/08/24 11:27:35;;;;;;;2.40;1.40;;;34.80;41.60;;;;;;4977901;28;20683;-71
2022/08/24 11:30:20;;;;;;;3.33;1.08;;;35.10;43.00;;;;;;4975731;28;20030;-71
2022/08/24 11:32:55;;;;;;;4.10;1.35;;;35.50;52.70;;;;;;4974233;28;20398;-72
2022/08/24 11:35:31;;;;;;;3.00;1.20;;;35.60;46.70;;;;;;4972946;28;20434;-72
2022/08/24 11:38:08;;;;;;;2.40;1.20;;;35.70;41.00;;;;;;4977668;28;20089;-72
2022/08/24 11:40:40;;;;;;;4.47;1.70;;;35.80;48.50;;;;;;4973780;28;20058;-72
2022/08/24 11:43:06;;;;;;;3.13;1.20;;;35.80;45.40;;;;;;4976213;28;20022;-72
2022/08/24 11:45:50;;;;;;;5.00;1.20;;;35.70;42.00;;;;;;4982460;28;20034;-73
2022/08/24 11:48:38;;;;;;;2.42;1.00;;;35.80;42.40;;;;;;4985932;28;20049;-72
2022/08/24 11:51:14;;;;;;;3.47;1.40;;;35.80;41.60;;;;;;4989974;28;20481;-72
2022/08/24 11:53:57;;;;;;;5.47;1.08;;;35.90;40.10;;;;;;4979374;28;20650;-72
2022/08/24 11:56:28;;;;;;;3.35;0.98;;;35.70;45.20;;;;;;4969556;28;20031;-72
2022/08/24 11:59:05;;;;;;;2.60;1.10;;;35.50;43.70;;;;;;4974596;28;20125;-73
2022/08/24 12:01:55;;;;;;;4.75;1.40;;;35.20;43.50;;;;;;4990553;28;20105;-71
2022/08/24 12:04:44;;;;;;;4.22;1.30;;;35.00;43.40;;;;;;4986120;28;20014;-72
2022/08/24 12:07:15;;;;;;;4.55;1.80;;;34.90;42.90;;;;;;4970635;28;20039;-72
2022/08/24 12:09:55;;;;;;;4.53;1.50;;;34.70;42.00;;;;;;4973429;28;20023;-72
2022/08/24 12:12:30;;;;;;;4.30;1.20;;;34.50;49.00;;;;;;4969668;28;20133;-73
2022/08/24 12:15:10;;;;;;;3.35;1.35;;;34.40;49.10;;;;;;4964486;28;20517;-72
2022/08/24 12:17:44;;;;;;;3.08;1.55;;;34.50;52.30;;;;;;4970049;28;20486;-73
2022/08/24 12:20:15;;;;;;;4.05;1.70;;;34.50;48.70;;;;;;4974043;28;20069;-73
2022/08/24 12:22:41;;;;;;;5.03;1.63;;;34.40;48.50;;;;;;4989999;28;20041;-73
2022/08/24 12:26:00;;;;;;;6.72;1.70;;;34.40;43.90;;;;;;4976744;28;20023;-74
2022/08/24 12:27:56;;;;;;;1.98;1.10;;;34.40;45.00;;;;;;4988768;28;20093;-73
2022/08/24 12:30:21;;;;;;;3.95;1.23;;;34.40;42.30;;;;;;4976795;28;20022;-74
2022/08/24 12:32:59;;;;;;;3.15;1.30;;;34.50;44.90;;;;;;4989002;28;20026;-73
2022/08/24 12:35:39;;;;;;;1.88;1.10;;;34.60;43.20;;;;;;4979418;28;20137;-73
2022/08/24 12:38:15;;;;;;;4.65;1.88;;;34.60;47.30;;;;;;4988859;28;20559;-73
2022/08/24 12:40:48;;;;;;;5.82;1.48;;;34.70;44.70;;;;;;4976663;28;20393;-74
2022/08/24 12:43:36;;;;;;;2.45;1.23;;;34.40;42.10;;;;;;4971467;28;20073;-73
2022/08/24 12:46:05;;;;;;;4.03;1.40;;;34.30;43.20;;;;;;4976248;28;20019;-73
2022/08/24 12:48:54;;;;;;;3.63;1.77;;;34.20;44.60;;;;;;4989438;28;20027;-73
2022/08/24 12:51:31;;;;;;;2.50;1.10;;;34.10;42.60;;;;;;4984231;28;20873;-73
2022/08/24 12:54:18;;;;;;;4.05;1.10;;;34.00;43.50;;;;;;4969622;28;20030;-73
2022/08/24 12:57:05;;;;;;;5.05;1.70;;;34.00;50.00;;;;;;4980657;28;20489;-73
2022/08/24 13:00:04;;;;;;;5.47;1.73;;;34.00;44.70;;;;;;4975385;28;20488;-73
2022/08/24 13:02:36;;;;;;;2.97;1.40;;;34.00;51.50;;;;;;4983623;28;20544;-73
2022/08/24 13:05:13;;;;;;;4.05;1.65;;;33.90;44.00;;;;;;4987911;28;20023;-73
2022/08/24 13:07:45;;;;;;;2.47;1.25;;;33.90;43.20;;;;;;4981944;28;20038;-73
2022/08/24 13:10:23;;;;;;;4.95;1.42;;;34.10;50.80;;;;;;4974617;28;20109;-73
2022/08/24 13:13:09;;;;;;;2.38;1.10;;;34.50;48.60;;;;;;4979306;28;20113;-73
2022/08/24 13:15:34;;;;;;;4.80;1.40;;;34.90;43.70;;;;;;4970723;28;20022;-73
2022/08/24 13:18:20;;;;;;;2.80;1.27;;;35.10;41.30;;;;;;4982783;28;20038;-73